York Road, Pennsylvania
Current Conditions -  °F | °C
As of 10:53 AM on Monday 24 Nov 2014 (Local Time) from KTHV Reporting Station
Clear Clear  
Wind Chill: 67°   Ceiling: Unl
Heat Index: 67°   Visibility: 10mi
Dew Point: 57°   Wind: 13mph
Humidity: 70%   Direction: 190°S
Pressure: 29.62"   Gusts: 26mph
Location:  39.7863°N, 76.988°W
Report Text: KTHV 241553Z AUTO 19011G23KT 10SM CLR 19/14 A2962 RMK AO2 SLP030 T01940139
Loading
Personal Weather Stations






























Interactive Weather Map New forecast layout! Learn more

10-Day Weather Forecast

Advertisements
Track Severe Weather on mobile